sensor_id;sensor_type;location;lat;lon;timestamp;P1;durP1;ratioP1;P2;durP2;ratioP2
25299;SDS011;13241;51.208;4.432;2022-12-10T16:07:43;12.23;;;5.93;;
25299;SDS011;13241;51.208;4.432;2022-12-10T16:10:12;13.63;;;4.88;;
25299;SDS011;13241;51.208;4.432;2022-12-10T16:12:40;8.50;;;5.18;;
25299;SDS011;13241;51.208;4.432;2022-12-10T16:15:11;19.50;;;7.35;;
25299;SDS011;13241;51.208;4.432;2022-12-10T16:17:44;19.00;;;7.65;;
25299;SDS011;13241;51.208;4.432;2022-12-10T16:20:17;16.15;;;7.63;;
25299;SDS011;13241;51.208;4.432;2022-12-10T16:22:55;12.18;;;5.35;;
25299;SDS011;13241;51.208;4.432;2022-12-10T16:25:24;15.52;;;6.95;;
25299;SDS011;13241;51.208;4.432;2022-12-10T16:27:52;20.88;;;8.15;;
25299;SDS011;13241;51.208;4.432;2022-12-10T16:30:24;22.75;;;8.52;;
25299;SDS011;13241;51.208;4.432;2022-12-10T16:33:01;10.68;;;6.30;;
25299;SDS011;13241;51.208;4.432;2022-12-10T16:35:29;12.88;;;6.25;;
25299;SDS011;13241;51.208;4.432;2022-12-10T16:37:57;15.70;;;7.32;;
25299;SDS011;13241;51.208;4.432;2022-12-10T16:40:25;10.98;;;6.15;;
25299;SDS011;13241;51.208;4.432;2022-12-10T16:42:54;21.25;;;7.38;;
25299;SDS011;13241;51.208;4.432;2022-12-10T16:45:23;26.67;;;8.18;;
25299;SDS011;13241;51.208;4.432;2022-12-10T16:47:57;35.53;;;9.57;;
25299;SDS011;13241;51.208;4.432;2022-12-10T16:50:25;26.08;;;9.13;;
25299;SDS011;13241;51.208;4.432;2022-12-10T16:52:52;16.95;;;7.30;;
25299;SDS011;13241;51.208;4.432;2022-12-10T16:55:22;13.18;;;6.95;;
25299;SDS011;13241;51.208;4.432;2022-12-10T16:57:53;23.27;;;8.20;;
25299;SDS011;13241;51.208;4.432;2022-12-10T17:00:21;20.98;;;7.93;;
25299;SDS011;13241;51.208;4.432;2022-12-10T17:02:50;34.17;;;9.77;;
25299;SDS011;13241;51.208;4.432;2022-12-10T17:05:39;21.15;;;9.85;;
25299;SDS011;13241;51.208;4.432;2022-12-10T17:08:08;32.78;;;10.35;;
25299;SDS011;13241;51.208;4.432;2022-12-10T17:10:36;30.60;;;10.23;;
25299;SDS011;13241;51.208;4.432;2022-12-10T17:13:22;18.75;;;8.85;;
25299;SDS011;13241;51.208;4.432;2022-12-10T17:15:52;22.27;;;9.10;;
25299;SDS011;13241;51.208;4.432;2022-12-10T17:18:19;30.98;;;8.73;;
25299;SDS011;13241;51.208;4.432;2022-12-10T17:20:46;27.33;;;8.90;;
25299;SDS011;13241;51.208;4.432;2022-12-10T17:23:13;22.88;;;9.68;;
25299;SDS011;13241;51.208;4.432;2022-12-10T17:25:41;23.17;;;8.27;;
25299;SDS011;13241;51.208;4.432;2022-12-10T17:28:15;23.92;;;8.20;;
25299;SDS011;13241;51.208;4.432;2022-12-10T17:30:44;23.27;;;8.20;;
25299;SDS011;13241;51.208;4.432;2022-12-10T17:33:12;25.55;;;8.27;;
25299;SDS011;13241;51.208;4.432;2022-12-10T17:35:43;26.80;;;10.38;;
25299;SDS011;13241;51.208;4.432;2022-12-10T17:38:16;21.30;;;9.07;;
25299;SDS011;13241;51.208;4.432;2022-12-10T17:40:48;18.00;;;9.60;;
25299;SDS011;13241;51.208;4.432;2022-12-10T17:43:16;28.13;;;8.70;;
25299;SDS011;13241;51.208;4.432;2022-12-10T17:45:43;24.15;;;8.90;;
25299;SDS011;13241;51.208;4.432;2022-12-10T17:48:12;20.45;;;9.40;;
25299;SDS011;13241;51.208;4.432;2022-12-10T17:50:41;24.83;;;9.75;;
25299;SDS011;13241;51.208;4.432;2022-12-10T17:53:10;27.50;;;10.13;;
25299;SDS011;13241;51.208;4.432;2022-12-10T17:55:41;16.48;;;7.57;;
25299;SDS011;13241;51.208;4.432;2022-12-10T17:58:14;25.75;;;8.98;;
25299;SDS011;13241;51.208;4.432;2022-12-10T18:00:42;28.42;;;10.50;;
25299;SDS011;13241;51.208;4.432;2022-12-10T18:03:09;30.52;;;10.35;;
25299;SDS011;13241;51.208;4.432;2022-12-10T18:05:37;27.45;;;7.13;;
25299;SDS011;13241;51.208;4.432;2022-12-10T18:08:05;17.92;;;8.23;;
25299;SDS011;13241;51.208;4.432;2022-12-10T18:10:33;22.13;;;9.00;;
25299;SDS011;13241;51.208;4.432;2022-12-10T18:13:00;28.25;;;10.77;;
25299;SDS011;13241;51.208;4.432;2022-12-10T18:15:28;17.38;;;8.65;;
25299;SDS011;13241;51.208;4.432;2022-12-10T18:17:56;21.52;;;8.70;;
25299;SDS011;13241;51.208;4.432;2022-12-10T18:20:26;23.20;;;9.65;;
25299;SDS011;13241;51.208;4.432;2022-12-10T18:22:57;16.38;;;7.97;;
25299;SDS011;13241;51.208;4.432;2022-12-10T18:25:27;23.73;;;10.20;;
25299;SDS011;13241;51.208;4.432;2022-12-10T18:28:14;23.92;;;8.50;;
25299;SDS011;13241;51.208;4.432;2022-12-10T18:31:05;21.10;;;8.23;;
25299;SDS011;13241;51.208;4.432;2022-12-10T18:33:36;23.30;;;10.02;;
25299;SDS011;13241;51.208;4.432;2022-12-10T18:38:38;21.50;;;8.63;;
25299;SDS011;13241;51.208;4.432;2022-12-10T18:41:08;22.05;;;8.02;;
25299;SDS011;13241;51.208;4.432;2022-12-10T18:43:38;26.90;;;10.52;;
25299;SDS011;13241;51.208;4.432;2022-12-10T18:46:05;21.08;;;10.00;;
25299;SDS011;13241;51.208;4.432;2022-12-10T18:48:33;19.13;;;8.18;;
25299;SDS011;13241;51.208;4.432;2022-12-10T18:51:00;20.10;;;6.78;;
25299;SDS011;13241;51.208;4.432;2022-12-10T18:53:27;29.17;;;10.05;;
25299;SDS011;13241;51.208;4.432;2022-12-10T18:55:54;23.33;;;9.75;;
25299;SDS011;13241;51.208;4.432;2022-12-10T18:58:21;20.27;;;8.18;;
25299;SDS011;13241;51.208;4.432;2022-12-10T19:00:48;26.17;;;9.38;;
25299;SDS011;13241;51.208;4.432;2022-12-10T19:03:17;20.33;;;9.60;;
25299;SDS011;13241;51.208;4.432;2022-12-10T19:05:44;17.40;;;8.80;;
25299;SDS011;13241;51.208;4.432;2022-12-10T19:08:11;23.17;;;10.07;;
25299;SDS011;13241;51.208;4.432;2022-12-10T19:10:39;23.88;;;9.70;;
25299;SDS011;13241;51.208;4.432;2022-12-10T19:13:06;18.02;;;9.35;;
25299;SDS011;13241;51.208;4.432;2022-12-10T19:15:35;23.70;;;9.98;;
25299;SDS011;13241;51.208;4.432;2022-12-10T19:18:10;20.08;;;9.43;;
25299;SDS011;13241;51.208;4.432;2022-12-10T19:20:40;18.10;;;8.48;;
25299;SDS011;13241;51.208;4.432;2022-12-10T19:23:08;26.70;;;11.32;;
25299;SDS011;13241;51.208;4.432;2022-12-10T19:25:35;24.45;;;10.70;;
25299;SDS011;13241;51.208;4.432;2022-12-10T19:28:02;18.20;;;8.40;;
25299;SDS011;13241;51.208;4.432;2022-12-10T19:30:29;18.95;;;8.27;;
25299;SDS011;13241;51.208;4.432;2022-12-10T19:32:56;19.50;;;9.10;;
25299;SDS011;13241;51.208;4.432;2022-12-10T19:35:24;21.77;;;7.45;;
25299;SDS011;13241;51.208;4.432;2022-12-10T19:37:54;17.90;;;7.90;;
25299;SDS011;13241;51.208;4.432;2022-12-10T19:40:27;15.57;;;7.68;;
25299;SDS011;13241;51.208;4.432;2022-12-10T19:42:56;21.55;;;8.35;;
25299;SDS011;13241;51.208;4.432;2022-12-10T19:45:24;24.52;;;9.20;;
25299;SDS011;13241;51.208;4.432;2022-12-10T19:47:52;15.90;;;8.23;;
25299;SDS011;13241;51.208;4.432;2022-12-10T19:50:24;15.18;;;6.95;;
25299;SDS011;13241;51.208;4.432;2022-12-10T19:52:53;16.48;;;7.22;;
25299;SDS011;13241;51.208;4.432;2022-12-10T19:55:22;13.45;;;6.72;;
25299;SDS011;13241;51.208;4.432;2022-12-10T19:57:50;18.50;;;8.63;;
25299;SDS011;13241;51.208;4.432;2022-12-10T20:00:18;25.38;;;9.73;;
25299;SDS011;13241;51.208;4.432;2022-12-10T20:02:45;14.80;;;7.88;;
25299;SDS011;13241;51.208;4.432;2022-12-10T20:05:13;20.75;;;8.35;;
25299;SDS011;13241;51.208;4.432;2022-12-10T20:07:42;24.45;;;9.10;;
25299;SDS011;13241;51.208;4.432;2022-12-10T20:10:18;15.10;;;8.43;;
25299;SDS011;13241;51.208;4.432;2022-12-10T20:12:54;18.20;;;7.35;;
25299;SDS011;13241;51.208;4.432;2022-12-10T20:15:22;15.40;;;7.07;;
25299;SDS011;13241;51.208;4.432;2022-12-10T20:17:50;15.48;;;7.07;;
25299;SDS011;13241;51.208;4.432;2022-12-10T20:20:20;14.70;;;7.78;;
25299;SDS011;13241;51.208;4.432;2022-12-10T20:22:49;15.80;;;6.35;;
25299;SDS011;13241;51.208;4.432;2022-12-10T20:25:17;18.73;;;7.72;;
25299;SDS011;13241;51.208;4.432;2022-12-10T20:27:45;18.55;;;8.68;;
25299;SDS011;13241;51.208;4.432;2022-12-10T20:30:22;19.35;;;9.38;;
25299;SDS011;13241;51.208;4.432;2022-12-10T20:32:51;14.70;;;7.90;;
25299;SDS011;13241;51.208;4.432;2022-12-10T20:35:20;14.18;;;6.70;;
25299;SDS011;13241;51.208;4.432;2022-12-10T20:37:49;13.32;;;8.10;;
25299;SDS011;13241;51.208;4.432;2022-12-10T20:40:21;14.40;;;7.43;;
25299;SDS011;13241;51.208;4.432;2022-12-10T20:42:58;15.48;;;6.85;;
25299;SDS011;13241;51.208;4.432;2022-12-10T20:45:25;11.82;;;6.32;;
25299;SDS011;13241;51.208;4.432;2022-12-10T20:47:52;14.45;;;6.85;;
25299;SDS011;13241;51.208;4.432;2022-12-10T20:50:19;15.60;;;7.38;;
25299;SDS011;13241;51.208;4.432;2022-12-10T20:52:46;14.63;;;8.15;;
25299;SDS011;13241;51.208;4.432;2022-12-10T20:55:13;22.88;;;9.43;;
25299;SDS011;13241;51.208;4.432;2022-12-10T20:57:42;29.60;;;7.97;;
25299;SDS011;13241;51.208;4.432;2022-12-10T21:00:12;18.33;;;7.88;;
25299;SDS011;13241;51.208;4.432;2022-12-10T21:02:42;21.38;;;8.82;;
25299;SDS011;13241;51.208;4.432;2022-12-10T21:05:09;13.40;;;6.85;;
25299;SDS011;13241;51.208;4.432;2022-12-10T21:07:36;21.58;;;7.00;;
25299;SDS011;13241;51.208;4.432;2022-12-10T21:10:03;16.45;;;7.22;;
25299;SDS011;13241;51.208;4.432;2022-12-10T21:12:31;10.63;;;5.82;;
25299;SDS011;13241;51.208;4.432;2022-12-10T21:14:58;15.80;;;7.28;;
25299;SDS011;13241;51.208;4.432;2022-12-10T21:17:45;14.30;;;7.75;;
25299;SDS011;13241;51.208;4.432;2022-12-10T21:20:12;11.00;;;6.45;;
25299;SDS011;13241;51.208;4.432;2022-12-10T21:22:39;17.63;;;6.65;;
25299;SDS011;13241;51.208;4.432;2022-12-10T21:25:07;14.88;;;7.38;;
25299;SDS011;13241;51.208;4.432;2022-12-10T21:27:36;16.52;;;7.63;;
25299;SDS011;13241;51.208;4.432;2022-12-10T21:30:04;13.23;;;6.38;;
25299;SDS011;13241;51.208;4.432;2022-12-10T21:32:31;10.95;;;5.75;;
25299;SDS011;13241;51.208;4.432;2022-12-10T21:34:58;21.75;;;8.35;;
25299;SDS011;13241;51.208;4.432;2022-12-10T21:37:25;14.02;;;6.32;;
25299;SDS011;13241;51.208;4.432;2022-12-10T21:39:52;10.00;;;6.05;;
25299;SDS011;13241;51.208;4.432;2022-12-10T21:42:19;12.07;;;6.30;;
25299;SDS011;13241;51.208;4.432;2022-12-10T21:45:05;11.30;;;5.90;;
25299;SDS011;13241;51.208;4.432;2022-12-10T21:47:32;12.48;;;6.20;;
25299;SDS011;13241;51.208;4.432;2022-12-10T21:49:59;12.63;;;5.95;;
25299;SDS011;13241;51.208;4.432;2022-12-10T21:52:27;15.98;;;6.75;;
25299;SDS011;13241;51.208;4.432;2022-12-10T21:54:57;11.25;;;6.03;;
25299;SDS011;13241;51.208;4.432;2022-12-10T21:57:24;9.60;;;5.63;;
25299;SDS011;13241;51.208;4.432;2022-12-10T21:59:51;18.33;;;6.78;;
25299;SDS011;13241;51.208;4.432;2022-12-10T22:02:18;9.35;;;5.53;;
25299;SDS011;13241;51.208;4.432;2022-12-10T22:04:45;10.77;;;5.82;;
25299;SDS011;13241;51.208;4.432;2022-12-10T22:07:13;13.48;;;7.32;;
25299;SDS011;13241;51.208;4.432;2022-12-10T22:09:39;12.90;;;4.57;;
25299;SDS011;13241;51.208;4.432;2022-12-10T22:12:07;14.55;;;6.03;;
25299;SDS011;13241;51.208;4.432;2022-12-10T22:14:33;10.90;;;5.43;;
25299;SDS011;13241;51.208;4.432;2022-12-10T22:17:00;9.30;;;5.82;;
25299;SDS011;13241;51.208;4.432;2022-12-10T22:19:28;12.63;;;5.32;;
25299;SDS011;13241;51.208;4.432;2022-12-10T22:21:54;17.60;;;6.93;;
25299;SDS011;13241;51.208;4.432;2022-12-10T22:24:21;14.68;;;5.85;;
25299;SDS011;13241;51.208;4.432;2022-12-10T22:26:48;8.60;;;4.45;;
25299;SDS011;13241;51.208;4.432;2022-12-10T22:29:16;12.52;;;6.07;;
25299;SDS011;13241;51.208;4.432;2022-12-10T22:31:43;14.73;;;5.63;;
25299;SDS011;13241;51.208;4.432;2022-12-10T22:34:10;15.90;;;7.93;;
25299;SDS011;13241;51.208;4.432;2022-12-10T22:36:37;16.83;;;7.40;;
25299;SDS011;13241;51.208;4.432;2022-12-10T22:39:04;15.95;;;7.22;;
25299;SDS011;13241;51.208;4.432;2022-12-10T22:41:30;18.33;;;7.10;;
25299;SDS011;13241;51.208;4.432;2022-12-10T22:43:57;10.77;;;6.35;;
25299;SDS011;13241;51.208;4.432;2022-12-10T22:46:24;14.40;;;7.15;;
25299;SDS011;13241;51.208;4.432;2022-12-10T22:48:51;16.83;;;6.57;;
25299;SDS011;13241;51.208;4.432;2022-12-10T22:51:18;14.93;;;6.82;;
25299;SDS011;13241;51.208;4.432;2022-12-10T22:53:46;14.75;;;5.95;;
25299;SDS011;13241;51.208;4.432;2022-12-10T22:56:13;7.68;;;5.00;;
25299;SDS011;13241;51.208;4.432;2022-12-10T22:58:41;14.45;;;6.28;;
25299;SDS011;13241;51.208;4.432;2022-12-10T23:01:15;10.20;;;5.13;;
25299;SDS011;13241;51.208;4.432;2022-12-10T23:03:43;14.60;;;5.85;;
25299;SDS011;13241;51.208;4.432;2022-12-10T23:06:13;13.15;;;5.97;;
25299;SDS011;13241;51.208;4.432;2022-12-10T23:08:40;11.77;;;5.18;;
25299;SDS011;13241;51.208;4.432;2022-12-10T23:11:07;11.23;;;5.57;;
25299;SDS011;13241;51.208;4.432;2022-12-10T23:13:35;13.40;;;5.82;;
25299;SDS011;13241;51.208;4.432;2022-12-10T23:16:07;10.25;;;4.53;;
25299;SDS011;13241;51.208;4.432;2022-12-10T23:21:27;11.77;;;5.05;;
25299;SDS011;13241;51.208;4.432;2022-12-10T23:23:54;10.20;;;5.20;;
25299;SDS011;13241;51.208;4.432;2022-12-10T23:26:21;11.43;;;6.20;;
25299;SDS011;13241;51.208;4.432;2022-12-10T23:28:49;11.25;;;5.72;;
25299;SDS011;13241;51.208;4.432;2022-12-10T23:31:16;14.02;;;6.60;;
25299;SDS011;13241;51.208;4.432;2022-12-10T23:33:44;8.02;;;4.70;;
25299;SDS011;13241;51.208;4.432;2022-12-10T23:36:11;12.00;;;5.85;;
25299;SDS011;13241;51.208;4.432;2022-12-10T23:38:38;13.48;;;5.95;;
25299;SDS011;13241;51.208;4.432;2022-12-10T23:41:09;16.65;;;4.65;;
25299;SDS011;13241;51.208;4.432;2022-12-10T23:43:37;14.90;;;5.88;;
25299;SDS011;13241;51.208;4.432;2022-12-10T23:46:05;13.32;;;6.43;;
25299;SDS011;13241;51.208;4.432;2022-12-10T23:48:34;11.52;;;5.57;;
25299;SDS011;13241;51.208;4.432;2022-12-10T23:51:01;7.88;;;4.90;;
25299;SDS011;13241;51.208;4.432;2022-12-10T23:53:28;11.93;;;5.63;;
25299;SDS011;13241;51.208;4.432;2022-12-10T23:55:56;10.10;;;5.28;;
25299;SDS011;13241;51.208;4.432;2022-12-10T23:58:24;11.02;;;5.75;;
